Aérodrome :
LOGIN :

S'inscrire | Disclaimer

   EN    FR    IT 

 










Légende :    VFR   VFR Marginal   IFR   IFR Intensif   IFR Très Intensif
Visi : 
Plafond : 
>= 8 km
>= 3000ft
5 à 8 km
1000 à 3000 ft
1500m à 5 km
500 à 1000 ft
800 à 1500m
200 à 500 ft
< 800m
< 200 ft
Symboles :   Orages  Brouillard  Fortes neiges  Fortes précipitations  Vent > 20 kt
SIGMETs :   Divers  Orages  Givrage  Turbulence  Onde Orograph.  Cendres Volcan.






- Altitude de l'aérodrome : 33 ft
- Code IATA : MHZ


EGUN - RAF Mildenhall

DERNIER METAR :
  • 031956Z AUTO 01012G19KT 9999 FEW016 OVC038 13/12 A2975 RMK AO2 SLP077 T01320124 $

METARs EXPIRÉS :
  • 031856Z AUTO 01013KT 9999 SCT019 BKN036 BKN090 14/12 A2975 RMK AO2 SLP077 T01400119 .
  • 031756Z 02011G17KT 9999 SCT023 BKN090 15/12 A2975 RMK AO2A SLP077 T01450116 10180 20145 56005 $

TAF TAF EGUN
Valide du 03 à 20h jusqu'au 05 à 02h UTC


032000Z 0320/0502 01012KT 9999 FEW015 BKN030 QNH2973INS
BECMG 0321/0322 34012KT 8000 -SHRA OVC015 QNH2958INS
BECMG 0408/0409 34012G20KT 9000 -SHRA BKN030 QNH2952INS
BECMG 0417/0418 32009KT 9999 NSW SCT030 QNH2936INS TX15/0414Z TN09/0404Z



MET'MAP, la Météo Aéronautique d'un coup d'oeil ! - Copyright ORBIFLY Décembre 2007 - Disclaimer

ORBIFLY MET'MAP TEAM :

Programmation & Développement : Alexandra Zaïnal
Sur une idée originale de : Baudouin d'Aumeries
Assistance à la programmation : Marc-Olivier Méhu
Soutien technique & logistique : Manuel Goepfert

Contact : metmap@orbifly.com




SOURCES & CREDITS :

   NOAA